createdAt,value
2023-04-27T00:00:29.960Z,69.08
2023-04-27T00:02:57.551Z,69.66
2023-04-27T00:05:25.101Z,69.62
2023-04-27T00:07:52.034Z,70.09
2023-04-27T00:10:19.451Z,70.02
2023-04-27T00:12:48.873Z,70.56
2023-04-27T00:15:16.714Z,70.64
2023-04-27T00:17:44.485Z,71.56
2023-04-27T00:20:12.804Z,72.73
2023-04-27T00:22:40.370Z,71.33
2023-04-27T00:25:14.916Z,71.58
2023-04-27T00:27:42.383Z,71.00
2023-04-27T00:30:12.484Z,70.90
2023-04-27T00:32:39.386Z,72.56
2023-04-27T00:35:07.867Z,72.09
2023-04-27T00:37:35.353Z,71.72
2023-04-27T00:40:05.297Z,72.27
2023-04-27T00:42:33.028Z,72.34
2023-04-27T00:45:00.438Z,71.68
2023-04-27T00:47:30.656Z,71.96
2023-04-27T00:49:58.154Z,72.07
2023-04-27T00:52:26.696Z,71.81
2023-04-27T00:54:54.205Z,71.48
2023-04-27T00:57:21.396Z,71.55
2023-04-27T00:59:48.903Z,71.40
2023-04-27T01:02:16.790Z,70.77
2023-04-27T01:04:46.041Z,70.31
2023-04-27T01:07:13.367Z,70.14
2023-04-27T01:09:42.555Z,70.14
2023-04-27T01:12:10.132Z,69.80
2023-04-27T01:14:37.588Z,70.15
2023-04-27T01:17:04.890Z,69.88
2023-04-27T01:19:32.542Z,70.35
2023-04-27T01:22:02.251Z,70.53
2023-04-27T01:24:31.262Z,70.21
2023-04-27T01:26:58.915Z,70.30
2023-04-27T01:29:26.593Z,70.94
2023-04-27T01:31:54.163Z,70.37
2023-04-27T01:34:21.500Z,69.40
2023-04-27T01:36:49.183Z,68.54
2023-04-27T01:39:16.766Z,67.97
2023-04-27T01:41:46.155Z,67.28
2023-04-27T01:44:13.620Z,67.17
2023-04-27T01:46:40.917Z,67.08
2023-04-27T01:49:08.297Z,66.57
2023-04-27T01:51:35.951Z,65.82
2023-04-27T01:54:03.374Z,65.65
2023-04-27T01:56:30.969Z,65.99
2023-04-27T01:59:00.345Z,65.70
2023-04-27T02:01:28.003Z,65.56
2023-04-27T02:03:55.896Z,65.74
2023-04-27T02:06:23.844Z,65.85
2023-04-27T02:08:51.157Z,66.07
2023-04-27T02:11:19.357Z,66.60
2023-04-27T02:13:47.696Z,65.83
2023-04-27T02:16:16.763Z,65.64
2023-04-27T02:18:43.997Z,66.07
2023-04-27T02:21:11.407Z,65.57
2023-04-27T02:23:38.814Z,65.00
2023-04-27T02:26:06.336Z,65.05
2023-04-27T02:28:33.152Z,65.60
2023-04-27T02:31:00.981Z,66.37
2023-04-27T02:33:29.679Z,66.45
2023-04-27T02:35:57.164Z,66.57
2023-04-27T02:38:24.643Z,66.79
2023-04-27T02:40:54.419Z,66.40
2023-04-27T02:43:21.961Z,66.58
2023-04-27T02:45:49.357Z,66.57
2023-04-27T02:48:16.949Z,66.21
2023-04-27T02:50:46.825Z,66.42
2023-04-27T02:53:14.063Z,66.95
2023-04-27T02:55:47.151Z,66.61
2023-04-27T02:58:15.177Z,67.06
2023-04-27T03:00:43.152Z,66.72
2023-04-27T03:03:11.112Z,66.63
2023-04-27T03:05:38.557Z,66.61
2023-04-27T03:08:07.125Z,66.17
2023-04-27T03:10:34.867Z,66.12
2023-04-27T03:13:02.380Z,66.47
2023-04-27T03:15:30.221Z,66.70
2023-04-27T03:17:58.165Z,66.39
2023-04-27T03:20:25.984Z,65.58
2023-04-27T03:22:53.927Z,65.54
2023-04-27T03:25:24.660Z,65.66
2023-04-27T03:27:52.150Z,65.55
2023-04-27T03:30:20.139Z,65.44
2023-04-27T03:32:48.279Z,65.42
2023-04-27T03:35:15.774Z,64.60
2023-04-27T03:37:43.617Z,64.63
2023-04-27T03:40:12.956Z,65.30
2023-04-27T03:42:41.996Z,65.20
2023-04-27T03:45:09.978Z,65.17
2023-04-27T03:47:37.716Z,64.75
2023-04-27T03:50:05.450Z,64.29
2023-04-27T03:52:33.057Z,64.30
2023-04-27T03:55:00.424Z,64.36
2023-04-27T03:57:27.637Z,64.08
2023-04-27T03:59:57.808Z,64.25
2023-04-27T04:02:25.655Z,64.26
2023-04-27T04:04:53.087Z,64.09
2023-04-27T04:07:22.012Z,64.94
2023-04-27T04:09:49.621Z,64.33
2023-04-27T04:12:17.313Z,64.30
2023-04-27T04:14:45.605Z,65.10
2023-04-27T04:17:13.896Z,64.23
2023-04-27T04:19:41.500Z,63.95
2023-04-27T04:22:08.650Z,64.63
2023-04-27T04:24:36.258Z,64.51
2023-04-27T04:27:03.929Z,64.38
2023-04-27T04:29:31.885Z,64.46
2023-04-27T04:31:59.380Z,64.94
2023-04-27T04:34:28.922Z,65.46
2023-04-27T04:36:56.384Z,64.95
2023-04-27T04:39:24.342Z,64.37
2023-04-27T04:41:51.928Z,64.79
2023-04-27T04:44:19.823Z,64.53
2023-04-27T04:46:46.998Z,63.90
2023-04-27T04:49:14.005Z,64.18
2023-04-27T04:51:45.142Z,64.33
2023-04-27T04:54:11.969Z,64.65
2023-04-27T04:56:39.396Z,65.35
2023-04-27T04:59:06.902Z,65.93
2023-04-27T05:01:34.432Z,66.08
2023-04-27T05:04:02.436Z,65.95
2023-04-27T05:06:30.984Z,66.13
2023-04-27T05:09:00.141Z,66.06
2023-04-27T05:11:27.486Z,66.08
2023-04-27T05:13:54.461Z,65.29
2023-04-27T05:16:21.654Z,65.85
2023-04-27T05:18:49.219Z,65.00
2023-04-27T05:21:17.354Z,64.78
2023-04-27T05:23:44.649Z,65.28
2023-04-27T05:26:13.728Z,64.71
2023-04-27T05:28:41.135Z,64.37
2023-04-27T05:31:09.391Z,64.79
2023-04-27T05:33:36.815Z,64.73
2023-04-27T05:36:04.625Z,65.09
2023-04-27T05:38:33.787Z,65.19
2023-04-27T05:41:01.598Z,64.22
2023-04-27T05:43:31.669Z,63.75
2023-04-27T05:46:00.131Z,63.95
2023-04-27T05:48:27.889Z,63.46
2023-04-27T05:50:59.986Z,63.20
2023-04-27T05:53:27.807Z,63.10
2023-04-27T05:55:55.556Z,63.91
2023-04-27T05:58:23.633Z,64.03
2023-04-27T06:00:53.686Z,63.69
2023-04-27T06:03:21.580Z,63.29
2023-04-27T06:05:55.742Z,62.41
2023-04-27T06:08:24.410Z,62.07
2023-04-27T06:10:52.308Z,61.59
2023-04-27T06:13:20.062Z,61.41
2023-04-27T06:15:47.820Z,61.18
2023-04-27T06:18:16.725Z,61.78
2023-04-27T06:20:44.258Z,61.80
2023-04-27T06:23:11.757Z,61.49
2023-04-27T06:25:39.340Z,61.33
2023-04-27T06:28:06.954Z,62.10
2023-04-27T06:30:34.182Z,61.59
2023-04-27T06:33:00.953Z,60.31
2023-04-27T06:35:29.721Z,60.14
2023-04-27T06:37:57.530Z,60.29
2023-04-27T06:40:27.524Z,60.10
2023-04-27T06:42:55.045Z,60.21
2023-04-27T06:45:22.297Z,59.22
2023-04-27T06:47:51.653Z,59.27
2023-04-27T06:50:19.583Z,58.77
2023-04-27T06:52:49.046Z,58.25
2023-04-27T06:55:16.257Z,57.72
2023-04-27T06:57:44.097Z,57.04
2023-04-27T07:00:13.825Z,56.15
2023-04-27T07:02:41.899Z,54.71
2023-04-27T07:05:10.295Z,54.60
2023-04-27T07:07:38.229Z,53.06
2023-04-27T07:10:09.743Z,51.84
2023-04-27T07:12:37.863Z,51.07
2023-04-27T07:15:05.353Z,49.80
2023-04-27T07:17:33.493Z,50.17
2023-04-27T07:20:02.453Z,50.92
2023-04-27T07:22:30.165Z,51.13
2023-04-27T07:24:58.117Z,51.10
2023-04-27T07:27:27.535Z,50.70
2023-04-27T07:29:56.199Z,50.17
2023-04-27T07:32:23.837Z,49.00
2023-04-27T07:34:54.077Z,47.80
2023-04-27T07:37:22.778Z,47.08
2023-04-27T07:39:54.475Z,46.91
2023-04-27T07:42:22.714Z,46.52
2023-04-27T07:44:54.246Z,46.46
2023-04-27T07:47:21.301Z,47.08
2023-04-27T07:49:48.655Z,47.75
2023-04-27T07:52:16.585Z,48.28
2023-04-27T07:54:43.703Z,47.46
2023-04-27T07:57:13.799Z,48.47
2023-04-27T07:59:41.034Z,48.59
2023-04-27T08:02:19.027Z,49.23
2023-04-27T08:04:47.690Z,49.07
2023-04-27T08:07:15.977Z,49.80
2023-04-27T08:09:43.531Z,49.53
2023-04-27T08:12:10.653Z,49.64
2023-04-27T08:14:38.294Z,49.73
2023-04-27T08:17:07.695Z,49.29
2023-04-27T08:19:36.378Z,49.24
2023-04-27T08:22:04.447Z,48.26
2023-04-27T08:24:32.793Z,47.86
2023-04-27T08:27:00.309Z,48.16
2023-04-27T08:29:28.860Z,48.10
2023-04-27T08:32:00.816Z,48.67
2023-04-27T08:34:28.457Z,48.31
2023-04-27T08:36:58.826Z,48.42
2023-04-27T08:39:26.750Z,48.39
2023-04-27T08:41:54.024Z,48.45
2023-04-27T08:44:21.539Z,48.64
2023-04-27T08:46:49.189Z,49.46
2023-04-27T08:49:17.399Z,49.36
2023-04-27T08:51:45.904Z,50.46
2023-04-27T08:54:14.496Z,50.45
2023-04-27T08:56:41.255Z,50.70
2023-04-27T08:59:15.403Z,50.97
2023-04-27T09:01:45.169Z,52.07
2023-04-27T09:04:12.110Z,51.55
2023-04-27T09:06:39.256Z,50.87
2023-04-27T09:09:07.918Z,51.12
2023-04-27T09:11:38.625Z,50.93
2023-04-27T09:14:17.314Z,51.46
2023-04-27T09:16:44.943Z,50.81
2023-04-27T09:19:13.518Z,51.07
2023-04-27T09:21:40.875Z,51.74
2023-04-27T09:24:12.528Z,52.03
2023-04-27T09:26:43.050Z,51.85
2023-04-27T09:29:12.481Z,51.70
2023-04-27T09:31:42.671Z,51.55
2023-04-27T09:34:09.872Z,51.80
2023-04-27T09:36:38.861Z,51.78
2023-04-27T09:39:07.493Z,52.17
2023-04-27T09:41:36.732Z,52.76
2023-04-27T09:44:07.584Z,52.73
2023-04-27T09:46:35.680Z,52.29
2023-04-27T09:49:05.449Z,52.98
2023-04-27T09:51:34.520Z,53.25
2023-04-27T09:54:05.438Z,53.75
2023-04-27T09:56:48.897Z,53.67
2023-04-27T09:59:38.361Z,54.09
2023-04-27T10:02:20.883Z,54.15
2023-04-27T10:05:24.793Z,54.65
2023-04-27T10:07:53.875Z,55.53
2023-04-27T10:10:21.816Z,55.52
2023-04-27T10:13:02.478Z,55.59
2023-04-27T10:15:31.794Z,55.78
2023-04-27T10:18:05.262Z,56.12
2023-04-27T10:20:36.337Z,56.76
2023-04-27T10:23:05.355Z,54.94
2023-04-27T10:25:38.807Z,54.38
2023-04-27T10:28:06.127Z,54.54
2023-04-27T10:30:37.264Z,54.45
2023-04-27T10:33:06.824Z,54.66
2023-04-27T10:35:36.656Z,54.87
2023-04-27T10:38:08.048Z,55.69
2023-04-27T10:40:36.441Z,55.68
2023-04-27T10:43:10.888Z,55.12
2023-04-27T10:45:40.273Z,55.21
2023-04-27T10:48:09.672Z,54.32
2023-04-27T10:50:36.961Z,54.28
2023-04-27T10:53:05.398Z,54.29
2023-04-27T10:55:33.340Z,54.75
2023-04-27T10:58:02.265Z,54.70
2023-04-27T11:00:30.777Z,53.74
2023-04-27T11:03:11.771Z,52.56
2023-04-27T11:05:38.952Z,51.83
2023-04-27T11:08:06.706Z,51.65
2023-04-27T11:10:34.059Z,52.31
2023-04-27T11:13:07.465Z,51.75
2023-04-27T11:15:44.511Z,51.34
2023-04-27T11:18:12.912Z,51.37
2023-04-27T11:20:40.678Z,50.25
2023-04-27T11:23:08.134Z,49.86
2023-04-27T11:25:36.713Z,49.92
2023-04-27T11:28:04.037Z,49.90
2023-04-27T11:30:31.344Z,49.45
2023-04-27T11:32:59.258Z,50.27
2023-04-27T11:35:34.718Z,49.99
2023-04-27T11:38:01.830Z,49.52
2023-04-27T11:40:32.496Z,49.58
2023-04-27T11:43:01.228Z,50.12
2023-04-27T11:45:28.044Z,50.31
2023-04-27T11:47:55.555Z,50.46
2023-04-27T11:50:27.005Z,49.84
2023-04-27T11:53:01.212Z,49.26
2023-04-27T11:55:29.001Z,48.67
2023-04-27T11:57:59.706Z,48.65
2023-04-27T12:00:28.136Z,48.76
2023-04-27T12:02:55.163Z,48.44
2023-04-27T12:05:22.763Z,47.89
2023-04-27T12:07:50.982Z,48.54
2023-04-27T12:10:21.477Z,50.27
2023-04-27T12:12:49.253Z,50.39
2023-04-27T12:15:17.366Z,49.79
2023-04-27T12:17:50.935Z,50.73
2023-04-27T12:20:18.449Z,49.80
2023-04-27T12:22:45.897Z,50.14
2023-04-27T12:25:13.274Z,49.39
2023-04-27T12:27:41.698Z,48.70
2023-04-27T12:30:09.811Z,48.45
2023-04-27T12:32:36.645Z,47.65
2023-04-27T12:35:04.884Z,47.30
2023-04-27T12:37:32.581Z,47.22
2023-04-27T12:40:00.337Z,47.91
2023-04-27T12:42:28.453Z,48.93
2023-04-27T12:44:57.355Z,48.88
2023-04-27T12:47:45.955Z,48.06
2023-04-27T12:50:12.412Z,48.03
2023-04-27T12:52:39.265Z,48.04
2023-04-27T12:55:15.235Z,47.62
2023-04-27T12:57:45.466Z,48.03
2023-04-27T13:00:16.258Z,47.96
2023-04-27T13:02:43.260Z,47.58
2023-04-27T13:05:10.984Z,47.24
2023-04-27T13:07:38.829Z,47.65
2023-04-27T13:10:06.419Z,46.92
2023-04-27T13:12:34.894Z,46.83
2023-04-27T13:15:02.461Z,45.68
2023-04-27T13:17:32.078Z,45.67
2023-04-27T13:19:59.514Z,45.56
2023-04-27T13:22:27.362Z,45.22
2023-04-27T13:24:55.262Z,45.56
2023-04-27T13:27:22.599Z,45.03
2023-04-27T13:29:50.341Z,44.97
2023-04-27T13:32:17.585Z,45.42
2023-04-27T13:34:46.999Z,45.67
2023-04-27T13:37:21.136Z,45.18
2023-04-27T13:39:49.029Z,45.34
2023-04-27T13:42:16.217Z,45.95
2023-04-27T13:44:43.012Z,45.83
2023-04-27T13:47:09.992Z,45.53
2023-04-27T13:49:37.737Z,45.42
2023-04-27T13:52:06.540Z,45.50
2023-04-27T13:54:34.241Z,44.98
2023-04-27T13:57:01.111Z,44.84
2023-04-27T13:59:28.164Z,44.70
2023-04-27T14:01:57.761Z,44.63
2023-04-27T14:04:25.284Z,43.87
2023-04-27T14:06:52.790Z,43.45
2023-04-27T14:09:21.478Z,43.38
2023-04-27T14:11:56.459Z,43.64
2023-04-27T14:14:24.316Z,44.03
2023-04-27T14:16:51.549Z,43.96
2023-04-27T14:19:18.452Z,44.28
2023-04-27T14:21:45.581Z,45.55
2023-04-27T14:24:12.368Z,45.98
2023-04-27T14:26:40.790Z,46.92
2023-04-27T14:29:07.815Z,49.49
2023-04-27T14:31:34.856Z,53.33
2023-04-27T14:34:01.978Z,59.05
2023-04-27T14:36:28.765Z,64.01
2023-04-27T14:38:55.688Z,70.47
2023-04-27T14:41:22.685Z,75.53
2023-04-27T14:43:51.050Z,79.19
2023-04-27T14:46:20.934Z,81.52
2023-04-27T14:48:48.625Z,84.36
2023-04-27T14:51:16.054Z,86.20
2023-04-27T14:53:43.821Z,86.46
2023-04-27T14:56:11.085Z,89.36
2023-04-27T14:58:37.989Z,92.62
2023-04-27T15:01:07.804Z,92.36
2023-04-27T15:03:35.274Z,93.54
2023-04-27T15:06:02.686Z,93.41
2023-04-27T15:08:32.018Z,93.30
2023-04-27T15:11:00.658Z,94.54
2023-04-27T15:13:28.174Z,94.72
2023-04-27T15:15:55.306Z,95.04
2023-04-27T15:18:26.083Z,95.20
2023-04-27T15:20:54.229Z,95.78
2023-04-27T15:23:21.616Z,95.25
2023-04-27T15:25:50.008Z,94.69
2023-04-27T15:28:18.935Z,93.35
2023-04-27T15:30:46.552Z,92.74
2023-04-27T15:33:15.046Z,92.42
2023-04-27T15:35:43.711Z,91.44
2023-04-27T15:38:13.431Z,90.48
2023-04-27T15:40:41.392Z,89.50
2023-04-27T15:43:08.813Z,89.83
2023-04-27T15:45:36.281Z,89.01
2023-04-27T15:48:03.474Z,87.78
2023-04-27T15:50:30.721Z,86.50
2023-04-27T15:52:59.854Z,84.74
2023-04-27T15:55:27.425Z,84.66
2023-04-27T15:57:54.433Z,83.92
2023-04-27T16:00:22.602Z,83.19
2023-04-27T16:02:49.813Z,83.29
2023-04-27T16:05:16.940Z,83.01
2023-04-27T16:07:44.656Z,83.53
2023-04-27T16:10:14.022Z,83.31
2023-04-27T16:12:41.121Z,83.52
2023-04-27T16:15:10.876Z,84.17
2023-04-27T16:17:39.028Z,83.80
2023-04-27T16:20:08.003Z,82.68
2023-04-27T16:22:35.612Z,82.30
2023-04-27T16:25:02.843Z,81.82
2023-04-27T16:27:31.671Z,80.62
2023-04-27T16:29:59.242Z,81.38
2023-04-27T16:32:26.221Z,83.48
2023-04-27T16:34:53.197Z,84.87
2023-04-27T16:37:21.506Z,87.24
2023-04-27T16:39:48.653Z,88.92
2023-04-27T16:42:16.207Z,91.44
2023-04-27T16:44:44.538Z,92.32
2023-04-27T16:47:11.321Z,93.86
2023-04-27T16:49:38.101Z,95.61
2023-04-27T16:52:05.164Z,94.95
2023-04-27T16:54:31.993Z,95.89
2023-04-27T16:56:58.872Z,96.67
2023-04-27T16:59:25.518Z,95.99
2023-04-27T17:01:54.052Z,96.26
2023-04-27T17:04:21.027Z,98.15
2023-04-27T17:06:47.916Z,96.96
2023-04-27T17:09:14.845Z,97.71
2023-04-27T17:11:42.023Z,96.48
2023-04-27T17:14:09.945Z,97.99
2023-04-27T17:16:36.714Z,98.18
2023-04-27T17:19:05.065Z,97.08
2023-04-27T17:21:31.827Z,97.50
2023-04-27T17:23:58.749Z,97.62
2023-04-27T17:26:25.815Z,100.00
2023-04-27T17:28:54.747Z,98.79
2023-04-27T17:31:21.728Z,99.06
2023-04-27T17:33:49.593Z,98.57
2023-04-27T17:36:19.154Z,97.55
2023-04-27T17:38:46.196Z,97.72
2023-04-27T17:41:13.275Z,96.30
2023-04-27T17:43:40.291Z,95.63
2023-04-27T17:46:07.967Z,94.88
2023-04-27T17:48:37.816Z,95.19
2023-04-27T17:51:06.006Z,95.04
2023-04-27T17:53:36.633Z,94.13
2023-04-27T17:56:10.899Z,94.58
2023-04-27T17:58:38.636Z,93.60
2023-04-27T18:01:07.622Z,93.59
2023-04-27T18:03:34.557Z,92.53
2023-04-27T18:06:02.574Z,90.93
2023-04-27T18:08:30.642Z,91.92
2023-04-27T18:10:59.651Z,91.15
2023-04-27T18:13:27.035Z,92.27
2023-04-27T18:15:54.705Z,91.54
2023-04-27T18:18:24.687Z,92.19
2023-04-27T18:20:53.538Z,91.50
2023-04-27T18:23:22.608Z,90.79
2023-04-27T18:25:50.066Z,90.37
2023-04-27T18:28:18.683Z,90.86
2023-04-27T18:30:47.650Z,89.71
2023-04-27T18:33:15.085Z,91.41
2023-04-27T18:35:42.789Z,90.06
2023-04-27T18:38:09.693Z,90.21
2023-04-27T18:40:37.202Z,90.14
2023-04-27T18:43:03.941Z,90.09
2023-04-27T18:45:32.842Z,89.91
2023-04-27T18:48:00.624Z,90.06
2023-04-27T18:50:27.412Z,89.47
2023-04-27T18:52:54.294Z,89.49
2023-04-27T18:55:21.639Z,89.91
2023-04-27T18:57:49.313Z,88.82
2023-04-27T19:00:17.762Z,88.49
2023-04-27T19:02:46.725Z,89.64
2023-04-27T19:05:13.945Z,90.55
2023-04-27T19:07:42.099Z,90.68
2023-04-27T19:10:11.476Z,90.40
2023-04-27T19:12:38.690Z,89.38
2023-04-27T19:15:06.422Z,91.07
2023-04-27T19:17:33.878Z,91.22
2023-04-27T19:20:03.299Z,92.54
2023-04-27T19:22:30.855Z,93.42
2023-04-27T19:24:57.964Z,94.78
2023-04-27T19:27:25.885Z,93.94
2023-04-27T19:29:54.706Z,95.51
2023-04-27T19:32:23.405Z,94.11
2023-04-27T19:34:50.225Z,94.46
2023-04-27T19:37:20.519Z,96.51
2023-04-27T19:39:48.936Z,99.00
2023-04-27T19:42:15.782Z,98.50
2023-04-27T19:44:47.054Z,98.16
2023-04-27T19:47:14.461Z,98.72
2023-04-27T19:49:42.299Z,99.17
2023-04-27T19:52:10.164Z,98.54
2023-04-27T19:54:38.472Z,99.66
2023-04-27T19:57:06.617Z,100.00
2023-04-27T19:59:33.505Z,100.00
2023-04-27T20:02:01.766Z,100.00
2023-04-27T20:04:29.737Z,100.00
2023-04-27T20:06:56.770Z,100.00
2023-04-27T20:09:24.582Z,100.00
2023-04-27T20:11:53.550Z,100.00
2023-04-27T20:14:20.963Z,100.00
2023-04-27T20:16:51.570Z,100.00
2023-04-27T20:19:18.421Z,100.00
2023-04-27T20:21:47.407Z,100.00
2023-04-27T20:24:15.737Z,100.00
2023-04-27T20:26:43.451Z,100.00
2023-04-27T20:29:13.660Z,100.00
2023-04-27T20:31:41.238Z,100.00
2023-04-27T20:34:09.219Z,100.00
2023-04-27T20:36:36.446Z,100.00
2023-04-27T20:39:04.219Z,100.00
2023-04-27T20:41:32.265Z,100.00
2023-04-27T20:43:59.866Z,100.00
2023-04-27T20:46:28.809Z,100.00
2023-04-27T20:48:56.547Z,100.00
2023-04-27T20:51:23.410Z,100.00
2023-04-27T20:53:50.364Z,100.00
2023-04-27T20:56:18.303Z,100.00
2023-04-27T20:58:46.001Z,100.00
2023-04-27T21:01:13.675Z,100.00
2023-04-27T21:03:42.122Z,100.00
2023-04-27T21:06:09.600Z,100.00
2023-04-27T21:08:38.058Z,100.00
2023-04-27T21:11:06.199Z,100.00
2023-04-27T21:13:33.594Z,100.00
2023-04-27T21:16:01.434Z,100.00
2023-04-27T21:18:30.596Z,100.00
2023-04-27T21:21:00.597Z,100.00
2023-04-27T21:23:27.744Z,100.00
2023-04-27T21:25:55.435Z,100.00
2023-04-27T21:28:23.402Z,100.00
2023-04-27T21:30:50.699Z,100.00
2023-04-27T21:33:18.307Z,100.00
2023-04-27T21:35:45.583Z,100.00
2023-04-27T21:38:19.822Z,100.00
2023-04-27T21:40:47.417Z,100.00
2023-04-27T21:43:15.011Z,100.00
2023-04-27T21:45:41.842Z,100.00
2023-04-27T21:48:09.550Z,100.00
2023-04-27T21:50:37.036Z,100.00
2023-04-27T21:53:04.713Z,100.00
2023-04-27T21:55:34.320Z,100.00
2023-04-27T21:58:01.923Z,100.00
2023-04-27T22:00:29.118Z,100.00
2023-04-27T22:02:56.499Z,100.00
2023-04-27T22:05:24.168Z,100.00
2023-04-27T22:07:51.456Z,100.00
2023-04-27T22:10:19.189Z,100.00
2023-04-27T22:12:48.661Z,100.00
2023-04-27T22:15:16.194Z,100.00
2023-04-27T22:17:43.985Z,100.00
2023-04-27T22:20:12.513Z,100.00
2023-04-27T22:22:40.805Z,100.00
2023-04-27T22:25:09.276Z,100.00
2023-04-27T22:27:44.615Z,100.00
2023-04-27T22:30:16.362Z,100.00
2023-04-27T22:32:43.707Z,100.00
2023-04-27T22:35:18.700Z,100.00
2023-04-27T22:37:52.742Z,100.00
2023-04-27T22:40:20.175Z,100.00
2023-04-27T22:42:47.733Z,100.00
2023-04-27T22:45:17.052Z,100.00
2023-04-27T22:47:45.227Z,100.00
2023-04-27T22:50:12.876Z,100.00
2023-04-27T22:52:41.203Z,100.00
2023-04-27T22:55:09.977Z,100.00
2023-04-27T22:57:38.368Z,100.00
2023-04-27T23:00:07.531Z,100.00
2023-04-27T23:02:37.067Z,100.00
2023-04-27T23:05:05.225Z,100.00
2023-04-27T23:07:32.908Z,100.00
2023-04-27T23:10:00.497Z,100.00
2023-04-27T23:12:28.102Z,100.00
2023-04-27T23:14:55.983Z,100.00
2023-04-27T23:17:23.362Z,100.00
2023-04-27T23:19:52.403Z,100.00
2023-04-27T23:22:19.760Z,100.00
2023-04-27T23:24:47.417Z,100.00
2023-04-27T23:27:15.326Z,100.00
2023-04-27T23:29:42.898Z,100.00
2023-04-27T23:32:10.395Z,100.00
2023-04-27T23:34:38.066Z,100.00
2023-04-27T23:37:07.105Z,100.00
2023-04-27T23:39:34.604Z,100.00
2023-04-27T23:42:02.017Z,100.00
2023-04-27T23:44:29.250Z,100.00
2023-04-27T23:46:56.661Z,100.00
2023-04-27T23:49:24.090Z,100.00
2023-04-27T23:51:53.535Z,100.00
2023-04-27T23:54:23.361Z,100.00
2023-04-27T23:56:51.435Z,100.00
2023-04-27T23:59:18.684Z,100.00
